Home   Weather   Greece   Kalamata   Past weeks
Flag for Greece

Past Weather in Kalamata, Greece — Yesterday and Last 2 Weeks

Currently: 82 °F. Passing clouds. (Weather station: Kalamata Airport, Greece). See more current weather

Past Weather in Kalamata — Graph

°F

Kalamata Temperature Yesterday

Maximum temperature yesterday: 100 °F (at 11:20 am)
Minimum temperature yesterday: 73 °F (at 3:50 am)
Average temperature yesterday: 87 °F

High & Low Weather Summary for the Past Weeks

 TemperatureHumidityPressure
High108 °F (Jul 18, 1:50 pm)94% (Jul 15, 1:20 am)29.95 "Hg (Jul 15, 1:20 am)
Low63 °F (Jul 6, 5:20 am)14% (Jul 18, 2:20 pm)29.68 "Hg (Jul 20, 3:50 pm)
Average85 °F53%29.81 "Hg
* Reported Jul 5 10:20 pm — Jul 20 10:20 pm, Kalamata. Weather by CustomWeather, © 2024

Note: Actual official high and low records may vary slightly from our data, if they occured in-between our weather recording intervals... More about our weather records

Kalamata Weather History for the Previous 24 Hours

Scroll right to see more
 ConditionsComfort  
Time TempWeatherWind HumidityBarometerVisibility
10:20 pm
Sat, Jul 20
82 °FPassing clouds.No wind74%29.74 "HgN/A
9:50 pm84 °FPassing clouds.3 mph70%29.74 "HgN/A
9:20 pm86 °FPassing clouds.6 mph66%29.71 "HgN/A
8:50 pm88 °FPassing clouds.5 mph62%29.71 "HgN/A
8:20 pm90 °FPartly sunny.5 mph55%29.71 "HgN/A
7:50 pm90 °FScattered clouds.8 mph55%29.71 "HgN/A
7:20 pm93 °FScattered clouds.8 mph47%29.68 "HgN/A
6:50 pm95 °FPassing clouds.8 mph41%29.68 "HgN/A
6:20 pm95 °FPassing clouds.8 mph39%29.68 "HgN/A
5:50 pm97 °FPassing clouds.12 mph37%29.68 "HgN/A
5:20 pm97 °FPassing clouds.13 mph37%29.68 "HgN/A
4:50 pm97 °FPassing clouds.13 mph37%29.68 "HgN/A
3:50 pm99 °FPassing clouds.13 mph33%29.68 "HgN/A
2:50 pm99 °FPassing clouds.14 mph33%29.71 "HgN/A
2:20 pm97 °FPassing clouds.15 mph34%29.71 "HgN/A
1:50 pm97 °FPassing clouds.13 mph34%29.71 "HgN/A
1:20 pm95 °FPassing clouds.10 mph41%29.71 "HgN/A
12:50 pm95 °FPassing clouds.10 mph41%29.71 "HgN/A
12:20 pm99 °FPassing clouds.12 mph39%29.71 "HgN/A
11:20 am100 °FSunny.7 mph27%29.74 "Hg10 mi
10:20 am97 °FSunny.8 mph32%29.74 "Hg10 mi
9:50 am95 °FSunny.7 mph32%29.74 "Hg10 mi
9:20 am91 °FSunny.No wind38%29.74 "Hg10 mi
8:50 am88 °FSunny.5 mph43%29.74 "Hg10 mi
8:20 am88 °FSunny.5 mph40%29.74 "Hg10 mi
7:50 am84 °FSunny.6 mph43%29.74 "Hg10 mi
7:20 am81 °FSunny.5 mph48%29.74 "Hg10 mi
6:50 am82 °FSunny.8 mph42%29.74 "Hg10 mi
6:20 am82 °FClear.9 mph42%29.74 "Hg10 mi
5:50 am82 °FClear.7 mph42%29.74 "Hg10 mi
5:20 am79 °FWarm.5 mph54%29.74 "HgN/A
4:50 am75 °FMild.3 mph69%29.74 "HgN/A
4:20 am75 °FMild.6 mph74%29.74 "HgN/A
3:50 am73 °FMild.2 mph89%29.74 "HgN/A
3:20 am75 °FMild.1 mph89%29.74 "HgN/A
2:50 am75 °FClear.2 mph89%29.74 "Hg10 mi
2:20 am75 °FMild.1 mph94%29.77 "HgN/A
1:50 am77 °FWarm.No wind89%29.77 "HgN/A
1:20 am77 °FWarm.No wind89%29.77 "HgN/A
12:50 am79 °FWarm.1 mph84%29.77 "HgN/A
12:20 am79 °FWarm.1 mph89%29.77 "HgN/A
Weather by CustomWeather, © 2024

See weather overview